createdAt,value
2022-12-08T00:01:15.322Z,99.01
2022-12-08T00:03:42.588Z,99.05
2022-12-08T00:06:56.082Z,99.11
2022-12-08T00:09:31.990Z,99.03
2022-12-08T00:12:14.632Z,99.01
2022-12-08T00:14:46.932Z,99.05
2022-12-08T00:17:16.025Z,99.18
2022-12-08T00:19:43.415Z,99.23
2022-12-08T00:22:11.700Z,99.39
2022-12-08T00:24:39.754Z,99.27
2022-12-08T00:27:08.533Z,99.28
2022-12-08T00:29:35.262Z,99.19
2022-12-08T00:32:02.088Z,99.08
2022-12-08T00:34:30.285Z,98.79
2022-12-08T00:36:57.043Z,98.54
2022-12-08T00:39:24.122Z,98.40
2022-12-08T00:42:09.360Z,98.30
2022-12-08T00:44:36.070Z,98.30
2022-12-08T00:47:03.289Z,98.33
2022-12-08T00:49:29.935Z,98.45
2022-12-08T00:51:56.662Z,98.58
2022-12-08T00:54:23.882Z,98.67
2022-12-08T00:56:51.345Z,98.84
2022-12-08T00:59:18.489Z,99.19
2022-12-08T01:01:45.586Z,99.29
2022-12-08T01:04:15.493Z,99.54
2022-12-08T01:06:43.228Z,99.71
2022-12-08T01:09:12.119Z,99.65
2022-12-08T01:11:38.966Z,99.72
2022-12-08T01:14:05.748Z,99.61
2022-12-08T01:16:35.652Z,99.63
2022-12-08T01:19:03.330Z,99.63
2022-12-08T01:21:30.105Z,99.65
2022-12-08T01:23:59.599Z,99.66
2022-12-08T01:26:26.885Z,99.68
2022-12-08T01:28:53.922Z,99.57
2022-12-08T01:31:22.218Z,99.53
2022-12-08T01:33:49.826Z,99.62
2022-12-08T01:36:23.761Z,99.85
2022-12-08T01:38:51.549Z,99.99
2022-12-08T01:41:21.624Z,100.00
2022-12-08T01:44:08.117Z,100.00
2022-12-08T01:46:37.668Z,100.00
2022-12-08T01:49:25.597Z,100.00
2022-12-08T01:52:02.298Z,100.00
2022-12-08T01:54:33.606Z,100.00
2022-12-08T01:57:09.467Z,100.00
2022-12-08T01:59:41.425Z,100.00
2022-12-08T02:02:10.195Z,99.93
2022-12-08T02:04:37.378Z,99.76
2022-12-08T02:07:08.101Z,99.68
2022-12-08T02:09:37.045Z,99.68
2022-12-08T02:12:03.890Z,99.60
2022-12-08T02:14:30.996Z,99.55
2022-12-08T02:17:20.871Z,99.57
2022-12-08T02:20:04.300Z,99.55
2022-12-08T02:22:50.300Z,99.59
2022-12-08T02:25:27.000Z,99.66
2022-12-08T02:28:27.655Z,99.61
2022-12-08T02:31:11.611Z,99.70
2022-12-08T02:33:44.658Z,99.82
2022-12-08T02:36:26.314Z,99.85
2022-12-08T02:39:00.281Z,99.88
2022-12-08T02:41:47.730Z,99.95
2022-12-08T02:44:27.560Z,100.00
2022-12-08T02:47:00.105Z,100.00
2022-12-08T02:49:31.174Z,100.00
2022-12-08T02:52:11.028Z,100.00
2022-12-08T02:54:50.282Z,100.00
2022-12-08T02:57:58.780Z,100.00
2022-12-08T03:00:28.849Z,100.00
2022-12-08T03:03:14.047Z,100.00
2022-12-08T03:05:59.133Z,100.00
2022-12-08T03:08:48.790Z,100.00
2022-12-08T03:11:30.011Z,100.00
2022-12-08T03:14:00.708Z,100.00
2022-12-08T03:16:29.570Z,100.00
2022-12-08T03:19:05.013Z,100.00
2022-12-08T03:21:34.175Z,100.00
2022-12-08T03:24:05.291Z,99.96
2022-12-08T03:26:51.228Z,99.92
2022-12-08T03:29:18.474Z,99.88
2022-12-08T03:31:52.318Z,99.88
2022-12-08T03:34:21.276Z,99.84
2022-12-08T03:36:48.001Z,99.92
2022-12-08T03:39:14.715Z,99.95
2022-12-08T03:41:41.609Z,99.89
2022-12-08T03:44:08.261Z,99.82
2022-12-08T03:46:34.925Z,99.79
2022-12-08T03:49:01.821Z,99.77
2022-12-08T03:51:28.709Z,99.72
2022-12-08T03:53:55.566Z,99.68
2022-12-08T03:56:27.995Z,99.61
2022-12-08T03:58:55.079Z,99.59
2022-12-08T04:01:22.203Z,99.63
2022-12-08T04:03:49.687Z,99.74
2022-12-08T04:06:17.675Z,99.73
2022-12-08T04:08:44.483Z,99.77
2022-12-08T04:11:11.700Z,99.72
2022-12-08T04:13:40.763Z,99.65
2022-12-08T04:16:08.509Z,99.66
2022-12-08T04:18:35.603Z,99.72
2022-12-08T04:21:02.378Z,99.63
2022-12-08T04:23:29.206Z,99.55
2022-12-08T04:25:55.895Z,99.48
2022-12-08T04:28:22.668Z,99.43
2022-12-08T04:30:50.199Z,99.40
2022-12-08T04:33:17.054Z,99.45
2022-12-08T04:35:43.768Z,99.41
2022-12-08T04:38:10.686Z,99.32
2022-12-08T04:40:38.373Z,99.30
2022-12-08T04:43:05.779Z,99.28
2022-12-08T04:45:33.064Z,99.30
2022-12-08T04:48:00.366Z,99.35
2022-12-08T04:50:27.545Z,99.36
2022-12-08T04:52:54.259Z,99.31
2022-12-08T04:55:21.085Z,99.47
2022-12-08T04:57:47.864Z,99.50
2022-12-08T05:00:15.046Z,99.51
2022-12-08T05:02:41.765Z,99.48
2022-12-08T05:05:09.056Z,99.59
2022-12-08T05:07:35.965Z,99.61
2022-12-08T05:10:03.371Z,99.68
2022-12-08T05:12:30.299Z,99.61
2022-12-08T05:14:57.003Z,99.71
2022-12-08T05:17:23.726Z,99.79
2022-12-08T05:19:50.447Z,99.83
2022-12-08T05:22:17.048Z,99.90
2022-12-08T05:24:47.453Z,99.94
2022-12-08T05:27:14.966Z,99.91
2022-12-08T05:29:41.823Z,99.91
2022-12-08T05:32:08.485Z,99.94
2022-12-08T05:34:35.207Z,99.97
2022-12-08T05:37:01.962Z,100.00
2022-12-08T05:39:28.593Z,99.90
2022-12-08T05:41:55.261Z,99.82
2022-12-08T05:44:22.043Z,99.83
2022-12-08T05:46:48.698Z,99.90
2022-12-08T05:49:15.335Z,99.87
2022-12-08T05:51:42.087Z,99.75
2022-12-08T05:54:09.019Z,99.75
2022-12-08T05:56:35.692Z,99.76
2022-12-08T05:59:06.225Z,99.79
2022-12-08T06:01:33.090Z,99.78
2022-12-08T06:04:01.742Z,99.76
2022-12-08T06:06:29.459Z,99.80
2022-12-08T06:08:56.086Z,99.81
2022-12-08T06:11:30.730Z,99.76
2022-12-08T06:13:57.856Z,99.71
2022-12-08T06:16:26.557Z,99.68
2022-12-08T06:18:53.634Z,99.75
2022-12-08T06:21:20.999Z,99.79
2022-12-08T06:23:54.358Z,99.83
2022-12-08T06:26:21.669Z,99.83
2022-12-08T06:28:49.376Z,99.75
2022-12-08T06:31:22.344Z,99.80
2022-12-08T06:33:49.943Z,99.89
2022-12-08T06:36:18.867Z,99.91
2022-12-08T06:38:45.783Z,99.92
2022-12-08T06:41:13.153Z,99.95
2022-12-08T06:43:41.117Z,99.98
2022-12-08T06:46:10.847Z,99.98
2022-12-08T06:48:37.900Z,99.99
2022-12-08T06:51:08.889Z,99.92
2022-12-08T06:53:36.075Z,99.97
2022-12-08T06:56:03.534Z,99.92
2022-12-08T06:58:30.249Z,99.96
2022-12-08T07:00:57.060Z,99.97
2022-12-08T07:03:23.965Z,100.00
2022-12-08T07:06:01.816Z,99.96
2022-12-08T07:08:30.632Z,99.97
2022-12-08T07:10:57.440Z,99.99
2022-12-08T07:13:24.307Z,99.98
2022-12-08T07:15:51.350Z,99.98
2022-12-08T07:18:18.156Z,100.00
2022-12-08T07:20:44.984Z,99.99
2022-12-08T07:23:11.652Z,99.96
2022-12-08T07:25:38.279Z,99.94
2022-12-08T07:28:09.917Z,99.97
2022-12-08T07:30:37.259Z,99.98
2022-12-08T07:33:07.843Z,99.95
2022-12-08T07:35:35.399Z,99.93
2022-12-08T07:38:02.328Z,99.90
2022-12-08T07:40:29.144Z,99.89
2022-12-08T07:42:55.805Z,99.88
2022-12-08T07:45:26.903Z,99.85
2022-12-08T07:47:56.668Z,99.77
2022-12-08T07:50:23.452Z,99.78
2022-12-08T07:52:50.194Z,99.84
2022-12-08T07:55:16.972Z,99.84
2022-12-08T07:57:43.645Z,99.86
2022-12-08T08:00:11.081Z,99.79
2022-12-08T08:02:41.662Z,99.83
2022-12-08T08:05:08.972Z,99.86
2022-12-08T08:07:36.623Z,99.85
2022-12-08T08:10:04.257Z,99.82
2022-12-08T08:12:32.528Z,99.88
2022-12-08T08:15:00.767Z,99.82
2022-12-08T08:17:28.888Z,99.87
2022-12-08T08:19:56.076Z,99.85
2022-12-08T08:22:24.460Z,99.62
2022-12-08T08:24:51.286Z,99.60
2022-12-08T08:27:18.152Z,99.61
2022-12-08T08:29:44.800Z,99.58
2022-12-08T08:32:11.675Z,99.27
2022-12-08T08:34:38.519Z,99.10
2022-12-08T08:37:05.872Z,99.04
2022-12-08T08:39:32.738Z,99.09
2022-12-08T08:41:59.634Z,99.07
2022-12-08T08:44:26.266Z,98.92
2022-12-08T08:46:53.147Z,99.05
2022-12-08T08:49:20.042Z,99.36
2022-12-08T08:51:46.871Z,99.64
2022-12-08T08:54:13.733Z,99.95
2022-12-08T08:56:40.497Z,100.00
2022-12-08T08:59:07.492Z,100.00
2022-12-08T09:01:34.349Z,100.00
2022-12-08T09:04:01.347Z,99.81
2022-12-08T09:06:28.340Z,99.72
2022-12-08T09:08:55.259Z,99.68
2022-12-08T09:11:22.814Z,99.56
2022-12-08T09:13:50.745Z,99.20
2022-12-08T09:16:18.439Z,98.50
2022-12-08T09:18:45.726Z,98.44
2022-12-08T09:21:19.549Z,97.93
2022-12-08T09:23:46.157Z,97.60
2022-12-08T09:26:14.807Z,95.46
2022-12-08T09:28:45.829Z,94.93
2022-12-08T09:31:14.016Z,95.25
2022-12-08T09:33:41.441Z,94.90
2022-12-08T09:36:09.029Z,92.00
2022-12-08T09:38:36.741Z,91.23
2022-12-08T09:41:13.614Z,88.68
2022-12-08T09:44:03.572Z,88.04
2022-12-08T09:46:32.969Z,89.33
2022-12-08T09:49:01.718Z,90.53
2022-12-08T09:51:36.499Z,91.09
2022-12-08T09:54:12.017Z,90.32
2022-12-08T09:56:39.351Z,90.02
2022-12-08T09:59:30.417Z,90.30
2022-12-08T10:01:57.214Z,91.31
2022-12-08T10:04:34.036Z,91.51
2022-12-08T10:07:23.691Z,91.70
2022-12-08T10:10:19.168Z,91.91
2022-12-08T10:13:23.439Z,92.38
2022-12-08T10:15:57.509Z,92.84
2022-12-08T10:18:30.728Z,93.33
2022-12-08T10:21:11.122Z,93.62
2022-12-08T10:23:41.120Z,94.06
2022-12-08T10:26:19.270Z,94.16
2022-12-08T10:28:45.989Z,94.32
2022-12-08T10:31:17.124Z,93.90
2022-12-08T10:33:45.182Z,93.39
2022-12-08T10:36:11.917Z,93.61
2022-12-08T10:38:40.170Z,93.72
2022-12-08T10:41:13.550Z,94.14
2022-12-08T10:43:48.643Z,94.46
2022-12-08T10:46:20.359Z,94.33
2022-12-08T10:48:55.893Z,94.29
2022-12-08T10:51:33.761Z,93.22
2022-12-08T10:54:00.872Z,91.92
2022-12-08T10:56:30.182Z,91.48
2022-12-08T10:59:26.453Z,92.04
2022-12-08T11:01:56.524Z,92.34
2022-12-08T11:04:35.907Z,93.06
2022-12-08T11:07:05.655Z,92.73
2022-12-08T11:09:47.654Z,92.79
2022-12-08T11:12:21.952Z,92.42
2022-12-08T11:15:00.737Z,91.74
2022-12-08T11:17:35.060Z,91.63
2022-12-08T11:20:06.034Z,90.64
2022-12-08T11:22:36.583Z,90.77
2022-12-08T11:25:03.443Z,91.29
2022-12-08T11:27:32.746Z,91.36
2022-12-08T11:30:01.347Z,91.57
2022-12-08T11:32:27.932Z,91.73
2022-12-08T11:34:54.452Z,91.87
2022-12-08T11:37:41.388Z,91.94
2022-12-08T11:40:33.649Z,92.06
2022-12-08T11:43:26.670Z,91.77
2022-12-08T11:46:10.792Z,91.57
2022-12-08T11:48:48.613Z,91.97
2022-12-08T11:51:24.011Z,91.96
2022-12-08T11:54:02.560Z,91.97
2022-12-08T11:56:33.501Z,92.09
2022-12-08T11:59:09.254Z,92.08
2022-12-08T12:01:42.216Z,91.99
2022-12-08T12:04:19.861Z,91.92
2022-12-08T12:06:59.176Z,92.16
2022-12-08T12:09:36.004Z,92.12
2022-12-08T12:12:40.065Z,92.02
2022-12-08T12:15:32.359Z,91.96
2022-12-08T12:18:01.397Z,92.41
2022-12-08T12:20:36.706Z,92.73
2022-12-08T12:23:16.002Z,93.07
2022-12-08T12:25:54.376Z,93.12
2022-12-08T12:28:24.703Z,93.32
2022-12-08T12:31:14.611Z,93.45
2022-12-08T12:33:45.298Z,93.64
2022-12-08T12:36:13.767Z,94.12
2022-12-08T12:39:05.654Z,94.34
2022-12-08T12:41:55.509Z,94.54
2022-12-08T12:44:44.876Z,94.61
2022-12-08T12:47:14.233Z,94.62
2022-12-08T12:49:43.125Z,94.57
2022-12-08T12:52:09.654Z,94.44
2022-12-08T12:54:42.338Z,94.52
2022-12-08T12:57:08.839Z,94.62
2022-12-08T12:59:48.980Z,94.57
2022-12-08T13:02:25.992Z,94.67
2022-12-08T13:05:14.206Z,94.75
2022-12-08T13:08:01.347Z,94.89
2022-12-08T13:10:39.755Z,94.94
2022-12-08T13:13:09.040Z,94.98
2022-12-08T13:15:46.385Z,94.94
2022-12-08T13:18:36.012Z,95.00
2022-12-08T13:21:08.870Z,95.28
2022-12-08T13:23:44.609Z,95.43
2022-12-08T13:26:13.317Z,95.63
2022-12-08T13:28:58.581Z,95.83
2022-12-08T13:31:52.414Z,95.88
2022-12-08T13:34:47.174Z,95.97
2022-12-08T13:37:32.665Z,96.02
2022-12-08T13:40:15.917Z,95.91
2022-12-08T13:43:05.298Z,95.89
2022-12-08T13:46:18.227Z,95.94
2022-12-08T13:57:32.921Z,95.95
2022-12-08T14:00:14.009Z,95.97
2022-12-08T14:02:47.386Z,95.96
2022-12-08T14:05:18.586Z,96.01
2022-12-08T14:07:49.048Z,95.99
2022-12-08T14:10:21.301Z,96.06
2022-12-08T14:12:54.958Z,96.12
2022-12-08T14:15:22.574Z,96.17
2022-12-08T14:17:55.164Z,96.19
2022-12-08T14:20:29.065Z,96.25
2022-12-08T14:22:56.902Z,96.31
2022-12-08T14:25:25.984Z,96.30
2022-12-08T14:28:02.124Z,96.33
2022-12-08T14:30:32.221Z,96.43
2022-12-08T14:33:01.523Z,96.57
2022-12-08T14:35:38.807Z,96.48
2022-12-08T14:38:13.506Z,96.54
2022-12-08T14:41:02.432Z,96.51
2022-12-08T14:43:31.272Z,96.44
2022-12-08T14:46:18.518Z,96.59
2022-12-08T14:48:45.983Z,96.49
2022-12-08T14:51:16.160Z,96.49
2022-12-08T14:53:45.809Z,96.49
2022-12-08T14:56:33.987Z,96.56
2022-12-08T14:59:19.471Z,96.50
2022-12-08T15:01:48.181Z,96.76
2022-12-08T15:04:19.487Z,96.86
2022-12-08T15:07:09.276Z,97.11
2022-12-08T15:09:40.334Z,97.02
2022-12-08T15:12:13.171Z,97.02
2022-12-08T15:14:41.463Z,96.98
2022-12-08T15:17:29.642Z,96.99
2022-12-08T15:19:58.168Z,97.08
2022-12-08T15:22:28.591Z,97.12
2022-12-08T15:24:55.930Z,97.01
2022-12-08T15:27:24.594Z,97.05
2022-12-08T15:29:51.277Z,96.94
2022-12-08T15:32:23.242Z,96.93
2022-12-08T15:34:50.164Z,96.94
2022-12-08T15:37:22.282Z,96.96
2022-12-08T15:39:49.586Z,97.00
2022-12-08T15:42:16.336Z,96.86
2022-12-08T15:44:43.514Z,96.81
2022-12-08T15:47:18.753Z,96.72
2022-12-08T15:49:46.948Z,96.72
2022-12-08T15:52:16.157Z,96.77
2022-12-08T15:54:42.942Z,96.71
2022-12-08T16:04:19.898Z,96.49
2022-12-08T16:09:32.837Z,96.47
2022-12-08T16:12:18.560Z,96.35
2022-12-08T16:17:33.654Z,96.61
2022-12-08T16:20:01.086Z,96.60
2022-12-08T16:25:22.108Z,96.66
2022-12-08T16:28:05.334Z,96.67
2022-12-08T16:30:39.566Z,96.59
2022-12-08T16:33:06.469Z,96.54
2022-12-08T16:35:33.251Z,96.54
2022-12-08T16:38:00.178Z,96.66
2022-12-08T16:40:26.876Z,96.59
2022-12-08T16:42:53.451Z,96.68
2022-12-08T16:45:23.348Z,96.78
2022-12-08T16:47:54.063Z,96.80
2022-12-08T16:50:24.931Z,96.80
2022-12-08T16:53:03.967Z,96.83
2022-12-08T16:55:31.793Z,96.90
2022-12-08T16:57:58.881Z,97.05
2022-12-08T17:00:27.940Z,97.00
2022-12-08T17:02:55.226Z,96.98
2022-12-08T17:05:23.927Z,97.03
2022-12-08T17:07:52.107Z,97.13
2022-12-08T17:10:22.556Z,97.16
2022-12-08T17:12:52.939Z,97.28
2022-12-08T17:15:23.756Z,97.32
2022-12-08T17:17:52.009Z,97.42
2022-12-08T17:20:24.106Z,97.50
2022-12-08T17:22:54.830Z,97.80
2022-12-08T17:25:21.595Z,98.09
2022-12-08T17:27:48.353Z,98.13
2022-12-08T17:30:17.085Z,98.08
2022-12-08T17:32:44.290Z,98.01
2022-12-08T17:35:12.721Z,97.97
2022-12-08T17:37:39.897Z,98.00
2022-12-08T17:40:07.365Z,97.93
2022-12-08T17:42:34.453Z,97.87
2022-12-08T17:45:01.156Z,97.92
2022-12-08T17:47:27.981Z,98.06
2022-12-08T17:49:55.379Z,98.00
2022-12-08T17:52:21.953Z,98.01
2022-12-08T17:54:48.743Z,98.02
2022-12-08T17:57:15.427Z,98.03
2022-12-08T17:59:42.158Z,98.01
2022-12-08T18:02:11.172Z,98.04
2022-12-08T18:04:37.979Z,98.04
2022-12-08T18:07:05.276Z,98.12
2022-12-08T18:09:33.056Z,98.15
2022-12-08T18:11:59.923Z,98.14
2022-12-08T18:14:27.256Z,98.23
2022-12-08T18:16:53.988Z,98.25
2022-12-08T18:19:20.771Z,98.35
2022-12-08T18:21:47.510Z,98.41
2022-12-08T18:24:21.557Z,98.42
2022-12-08T18:26:51.337Z,98.47
2022-12-08T18:29:19.035Z,98.55
2022-12-08T18:31:45.832Z,98.47
2022-12-08T18:34:12.674Z,98.64
2022-12-08T18:36:39.459Z,98.58
2022-12-08T18:39:10.821Z,98.62
2022-12-08T18:41:37.847Z,98.75
2022-12-08T18:44:04.510Z,98.77
2022-12-08T18:46:31.362Z,98.88
2022-12-08T18:48:58.892Z,98.96
2022-12-08T18:51:25.742Z,99.10
2022-12-08T18:53:52.718Z,99.13
2022-12-08T18:56:28.498Z,99.09
2022-12-08T18:59:01.496Z,99.14
2022-12-08T19:01:33.412Z,99.17
2022-12-08T19:04:27.502Z,99.20
2022-12-08T19:06:49.785Z,99.33
2022-12-08T19:09:17.009Z,99.27
2022-12-08T19:11:43.854Z,99.30
2022-12-08T19:14:10.937Z,99.43
2022-12-08T19:16:37.915Z,99.36
2022-12-08T19:19:05.175Z,99.27
2022-12-08T19:21:33.247Z,99.23
2022-12-08T19:24:00.972Z,99.17
2022-12-08T19:26:27.921Z,99.12
2022-12-08T19:28:55.528Z,99.15
2022-12-08T19:31:22.318Z,99.13
2022-12-08T19:33:49.250Z,99.09
2022-12-08T19:36:19.188Z,99.07
2022-12-08T19:39:04.884Z,99.04
2022-12-08T19:41:51.132Z,98.90
2022-12-08T19:44:25.877Z,98.81
2022-12-08T19:46:52.692Z,98.85
2022-12-08T19:49:19.551Z,98.72
2022-12-08T19:51:46.246Z,98.71
2022-12-08T19:54:12.868Z,98.61
2022-12-08T19:56:39.629Z,98.54
2022-12-08T19:59:07.183Z,98.54
2022-12-08T20:01:34.073Z,98.56
2022-12-08T20:04:00.973Z,98.51
2022-12-08T20:06:27.730Z,98.61
2022-12-08T20:08:54.586Z,98.56
2022-12-08T20:11:21.465Z,98.59
2022-12-08T20:13:48.192Z,98.72
2022-12-08T20:16:16.243Z,98.69
2022-12-08T20:18:43.636Z,98.86
2022-12-08T20:21:11.533Z,98.80
2022-12-08T20:23:38.216Z,98.89
2022-12-08T20:26:07.516Z,99.06
2022-12-08T20:28:35.236Z,99.02
2022-12-08T20:31:02.830Z,99.05
2022-12-08T20:33:30.204Z,99.40
2022-12-08T20:35:59.761Z,99.33
2022-12-08T20:38:27.784Z,99.42
2022-12-08T20:40:55.520Z,99.64
2022-12-08T20:43:22.295Z,99.87
2022-12-08T20:45:49.189Z,99.94
2022-12-08T20:48:15.997Z,99.99
2022-12-08T20:50:43.478Z,100.00
2022-12-08T20:53:10.455Z,100.00
2022-12-08T20:55:41.031Z,100.00
2022-12-08T20:58:08.020Z,99.99
2022-12-08T21:00:34.702Z,100.00
2022-12-08T21:03:01.599Z,100.00
2022-12-08T21:05:28.600Z,99.98
2022-12-08T21:07:55.435Z,99.94
2022-12-08T21:10:22.256Z,99.98
2022-12-08T21:12:49.221Z,100.00
2022-12-08T21:15:16.443Z,100.00
2022-12-08T21:17:43.235Z,100.00
2022-12-08T21:20:10.890Z,100.00
2022-12-08T21:22:39.565Z,100.00
2022-12-08T21:25:07.294Z,100.00
2022-12-08T21:27:34.023Z,100.00
2022-12-08T21:30:01.493Z,99.99
2022-12-08T21:32:30.595Z,99.98
2022-12-08T21:34:57.961Z,100.00
2022-12-08T21:37:24.919Z,100.00
2022-12-08T21:39:51.861Z,100.00
2022-12-08T21:42:37.404Z,100.00
2022-12-08T21:45:04.999Z,100.00
2022-12-08T21:47:32.136Z,100.00
2022-12-08T21:49:59.142Z,100.00
2022-12-08T21:52:26.005Z,100.00
2022-12-08T21:54:52.733Z,100.00
2022-12-08T21:57:19.978Z,100.00
2022-12-08T21:59:46.837Z,100.00
2022-12-08T22:02:18.317Z,100.00
2022-12-08T22:04:49.064Z,100.00
2022-12-08T22:07:16.368Z,100.00
2022-12-08T22:09:43.164Z,100.00
2022-12-08T22:12:11.809Z,100.00
2022-12-08T22:14:39.951Z,100.00
2022-12-08T22:17:07.161Z,99.98
2022-12-08T22:19:34.450Z,99.91
2022-12-08T22:22:01.911Z,99.90
2022-12-08T22:24:30.140Z,99.84
2022-12-08T22:26:56.824Z,99.82
2022-12-08T22:29:23.745Z,99.86
2022-12-08T22:31:50.394Z,99.68
2022-12-08T22:34:17.151Z,99.55
2022-12-08T22:36:43.873Z,99.56
2022-12-08T22:39:11.545Z,99.54
2022-12-08T22:41:38.918Z,99.52
2022-12-08T22:44:06.490Z,99.64
2022-12-08T22:46:33.441Z,99.57
2022-12-08T22:49:00.194Z,99.61
2022-12-08T22:51:26.840Z,99.65
2022-12-08T22:53:53.531Z,99.79
2022-12-08T22:56:20.208Z,99.89
2022-12-08T22:58:47.226Z,99.87
2022-12-08T23:01:40.357Z,99.80
2022-12-08T23:04:09.159Z,99.74
2022-12-08T23:06:38.211Z,99.81
2022-12-08T23:09:06.223Z,99.85
2022-12-08T23:11:33.281Z,99.67
2022-12-08T23:13:59.898Z,99.65
2022-12-08T23:16:26.604Z,99.62
2022-12-08T23:18:53.615Z,99.65
2022-12-08T23:21:21.232Z,99.56
2022-12-08T23:23:48.281Z,99.61
2022-12-08T23:26:23.947Z,99.55
2022-12-08T23:28:50.710Z,99.55
2022-12-08T23:31:18.860Z,99.64
2022-12-08T23:33:46.258Z,99.58
2022-12-08T23:36:14.710Z,99.68
2022-12-08T23:38:42.221Z,99.90
2022-12-08T23:41:10.754Z,100.00
2022-12-08T23:43:42.071Z,100.00
2022-12-08T23:46:08.780Z,99.99
2022-12-08T23:48:35.774Z,99.98
2022-12-08T23:51:02.686Z,99.98
2022-12-08T23:53:31.108Z,99.95
2022-12-08T23:56:03.437Z,99.94
2022-12-08T23:58:31.267Z,99.98
